Dog Valley, California Weather observations

Data are for 10 minute period ending at time listed.
 Day   Time    Ave.   Ave.  Ave.  Vector   Max.   Total    Solar   
  of    of     Air    Rel.  Wind   Wind    Wind  Precip.   Rad.    
Year   Day     Temp.  Hum.  Speed  Dir.    Gust                    
2014   (PST)    F      %     mph   deg.    mph     in.     W/m2    
------------------------------------------------------------------- 
 303   10:00   48.0    77    0.0    89      2.0    4.20     143  
 303   11:00   57.0    37    1.0   210      6.0    4.20     195  
 303   12:00   61.0    29    1.0   215      5.0    4.20     250  
 303   13:00   63.0    27    1.0   133      6.0    4.20     289  
 303   14:00   63.0    24    1.0   136      4.0    4.20     245  
 303   15:00   64.0    24    1.0   143      5.0    4.20     190  
 303   16:00   62.0    25    1.0   217      8.0    4.20      99  
 303   17:00   58.0    28    1.0   163      6.0    4.20      38  
 303   18:00   53.0    34    0.0   128      6.0    4.20       1  
 303   19:00   53.0    37    0.0   147      6.0    4.20       0  
 303   20:00   50.0    41    1.0   147      5.0    4.20       0  
 303   21:00   48.0    44    0.0   153      4.0    4.20       0  
 303   22:00   46.0    46    1.0   143      4.0    4.20       0  
 303   23:00   46.0    45    0.0   257      4.0    4.20       0  
 304    0:00   47.0    42    0.0   190      6.0    4.20       0  
 304    1:00   42.0    52    0.0   193      2.0    4.20       0  
 304    2:00   41.0    52    0.0   221      2.0    4.20       0  
 304    3:00   39.0    58    1.0   252      3.0    4.20       0  
 304    4:00   42.0    60    1.0   153      7.0    4.20       0  
 304    5:00   43.0    64    1.0   140      6.0    4.20       0  
 304    6:00   42.0    68    1.0   155      8.0    4.20       0  
 304    7:00   39.0    80    0.0   217      4.0    4.20       1  
 304    8:00   46.0    61    2.0   151      5.0    4.20      29  
 304    9:00   52.0    46    3.0   233     19.0    4.20      60  

Return to Dog Valley, California graphs page.


Western Regional Climate Center,wrcc@dri.edu